Tokyo Triumph — 9V3477 — position and weather

sailwx.info

Track history (hours):
 
Tides and Currents Weather Stations Pressure Air Temp Water Temp Dewpoint Dewpoint Depression Visibility Wind Speed Wind Dir Waves Ship Positions

Tokyo Triumph

Last reported at 2018-Apr-14 17:02 UTC. Time now 2018-Apr-21 15:40 UTC.
Position N 13°43' E 056°46'.

Length 365 m; draft 15.3 m.

Type: Cargo ship. MMSI: 563020400.

Date/timePositionNaut miles runAvg speedWind from/ knotsBaromVisibWave heightAir tempDewpointWater temp
2018-Apr-14 17:02N 13°43' E 056°46'118.2
2018-Apr-14 16:59N 13°44' E 056°45'5418.2
2018-Apr-14 14:03N 13°59' E 055°52'118.5
2018-Apr-14 14:00N 13°59' E 055°51'1418.4
2018-Apr-14 13:13N 14°03' E 055°37'418.4
2018-Apr-14 12:59N 14°05' E 055°32'  
2018-Apr-06 02:27N 36°16' E 015°08'815.0
2018-Apr-06 01:55N 36°19' E 014°58'614.3
2018-Apr-06 01:30N 36°20' E 014°51'714.0
2018-Apr-06 01:00N 36°22' E 014°43'714.2
2018-Apr-06 00:30N 36°24' E 014°35'816.1
2018-Apr-05 23:59N 36°27' E 014°25'612.1
2018-Apr-05 23:29N 36°28' E 014°17'714.1
2018-Apr-05 23:00N 36°30' E 014°09'714.0
2018-Apr-05 22:30N 36°32' E 014°01'917.4
2018-Apr-05 22:00N 36°34' E 013°50'510.3
2018-Apr-05 21:30N 36°35' E 013°44'713.8
2018-Apr-05 21:00N 36°38' E 013°36'714.1
2018-Apr-05 20:30N 36°40' E 013°28'714.1
2018-Apr-05 20:00N 36°43' E 013°20'714.0
2018-Apr-05 19:30N 36°45' E 013°11'814.3
2018-Apr-05 18:58N 36°47' E 013°02'613.5
2018-Apr-05 18:31N 36°48' E 012°54'3014.5
2018-Apr-05 16:27N 36°57' E 012°18'715.1
2018-Apr-05 16:00N 36°59' E 012°11'612.7
2018-Apr-05 15:30N 37°01' E 012°03'  
Track history (hours):
 
Tides and Currents Weather Stations Pressure Air Temp Water Temp Dewpoint Dewpoint Depression Visibility Wind Speed Wind Dir Waves Ship Positions

Tokyo Triumph

Last reported at 2018-Apr-14 17:02 UTC. Time now 2018-Apr-21 15:40 UTC.
Position N 13°43' E 056°46'.

Length 365 m; draft 15.3 m.

Type: Cargo ship. MMSI: 563020400.

Date/timePositionNaut miles runAvg speedWind from/ knotsBaromVisibWave heightAir tempDewpointWater temp
2018-Apr-14 17:02N 13°43' E 056°46'118.2
2018-Apr-14 16:59N 13°44' E 056°45'5418.2
2018-Apr-14 14:03N 13°59' E 055°52'118.5
2018-Apr-14 14:00N 13°59' E 055°51'1418.4
2018-Apr-14 13:13N 14°03' E 055°37'418.4
2018-Apr-14 12:59N 14°05' E 055°32'  
2018-Apr-06 02:27N 36°16' E 015°08'815.0
2018-Apr-06 01:55N 36°19' E 014°58'614.3
2018-Apr-06 01:30N 36°20' E 014°51'714.0
2018-Apr-06 01:00N 36°22' E 014°43'714.2
2018-Apr-06 00:30N 36°24' E 014°35'816.1
2018-Apr-05 23:59N 36°27' E 014°25'612.1
2018-Apr-05 23:29N 36°28' E 014°17'714.1
2018-Apr-05 23:00N 36°30' E 014°09'714.0
2018-Apr-05 22:30N 36°32' E 014°01'917.4
2018-Apr-05 22:00N 36°34' E 013°50'510.3
2018-Apr-05 21:30N 36°35' E 013°44'713.8
2018-Apr-05 21:00N 36°38' E 013°36'714.1
2018-Apr-05 20:30N 36°40' E 013°28'714.1
2018-Apr-05 20:00N 36°43' E 013°20'714.0
2018-Apr-05 19:30N 36°45' E 013°11'814.3
2018-Apr-05 18:58N 36°47' E 013°02'613.5
2018-Apr-05 18:31N 36°48' E 012°54'3014.5
2018-Apr-05 16:27N 36°57' E 012°18'715.1
2018-Apr-05 16:00N 36°59' E 012°11'612.7
2018-Apr-05 15:30N 37°01' E 012°03'  

Dump ship's entire track history